Sakizaya Wisdom — 3FAJ4 — position and weather

sailwx.info

Track history (hours):
 
Tides and Currents Weather Stations Pressure Air Temp Water Temp Dewpoint Dewpoint Depression Visibility Wind Speed Wind Dir Waves Ship Positions

Sakizaya Wisdom

Last reported at 2017-Dec-16 16:28 UTC. Time now 2017-Dec-16 16:39 UTC.
Position N 25°36' E 122°14'.

Length 225 m; draft 12.9 m.

Type: Cargo ship. MMSI: 355860000.

Date/timePositionNaut miles runAvg speedWind from/ knotsBaromVisibWave heightAir tempDewpointWater temp
2017-Dec-16 16:28N 25°36' E 122°14'2 4.2
2017-Dec-16 16:00N 25°34' E 122°14'2 3.7
2017-Dec-16 15:31N 25°32' E 122°13'6 4.1
2017-Dec-16 14:07N 25°26' E 122°13'1 5.3
2017-Dec-16 14:00N 25°26' E 122°13'3 5.0
2017-Dec-16 13:31N 25°23' E 122°12'2 4.8
2017-Dec-16 13:01N 25°21' E 122°12'3 5.7
2017-Dec-16 12:31N 25°18' E 122°12'3 6.1
2017-Dec-16 12:00N 25°15' E 122°11'3 5.3
2017-Dec-16 11:30N 25°12' E 122°11'3 5.7
2017-Dec-16 10:56N 25°09' E 122°11'7 5.0
2017-Dec-16 09:30N 25°02' E 122°10'3 5.0
2017-Dec-16 08:59N 24°60' E 122°10'4 4.8
2017-Dec-16 08:07N 24°56' E 122°08'3 4.3
2017-Dec-16 07:27N 24°53' E 122°07'3 5.4
2017-Dec-16 06:52N 24°50' E 122°06'3 7.5
2017-Dec-16 06:30N 24°47' E 122°05'5 8.4
2017-Dec-16 05:52N 24°42' E 122°03'19 9.4
2017-Dec-16 03:52N 24°24' E 121°57'7712.9
2017-Dec-15 21:52N 23°10' E 121°33'714.2
2017-Dec-15 21:22N 23°04' E 121°29'3513.4
2017-Dec-15 18:46N 22°31' E 121°17'412.8
2017-Dec-15 18:28N 22°28' E 121°15'912.7
2017-Dec-15 17:47N 22°20' E 121°13'413.2
2017-Dec-15 17:30N 22°16' E 121°11'713.4
2017-Dec-15 17:00N 22°10' E 121°09'  
2017-Dec-09 04:07N 01°17' E 104°01'0 0.1
2017-Dec-09 03:55N 01°17' E 104°01'0 0.0
2017-Dec-08 20:37N 01°17' E 104°01'0 0.0
2017-Dec-08 20:19N 01°17' E 104°01'0 0.0
2017-Dec-08 19:49N 01°17' E 104°01'0 0.0
2017-Dec-08 19:10N 01°17' E 104°01'0 0.0
2017-Dec-08 18:58N 01°17' E 104°01'0 0.0
2017-Dec-08 17:03N 01°17' E 104°01'0 0.1
2017-Dec-08 16:57N 01°17' E 104°01'0 0.3
2017-Dec-08 16:26N 01°17' E 104°01'2 4.7
2017-Dec-08 15:59N 01°16' E 103°59'2 3.8
2017-Dec-08 15:30N 01°15' E 103°57'3 6.4
2017-Dec-08 15:00N 01°13' E 103°55'612.2
2017-Dec-08 14:30N 01°11' E 103°50'612.8
2017-Dec-08 14:00N 01°07' E 103°45'611.6
2017-Dec-08 13:30N 01°04' E 103°40'610.6
2017-Dec-08 12:59N 01°06' E 103°34'511.0
2017-Dec-08 12:30N 01°08' E 103°30'511.1
2017-Dec-08 12:00N 01°11' E 103°25'610.9
2017-Dec-08 11:27N 01°15' E 103°20'  
Track history (hours):
 
Tides and Currents Weather Stations Pressure Air Temp Water Temp Dewpoint Dewpoint Depression Visibility Wind Speed Wind Dir Waves Ship Positions

Sakizaya Wisdom

Last reported at 2017-Dec-16 16:28 UTC. Time now 2017-Dec-16 16:39 UTC.
Position N 25°36' E 122°14'.

Length 225 m; draft 12.9 m.

Type: Cargo ship. MMSI: 355860000.

Date/timePositionNaut miles runAvg speedWind from/ knotsBaromVisibWave heightAir tempDewpointWater temp
2017-Dec-16 16:28N 25°36' E 122°14'2 4.2
2017-Dec-16 16:00N 25°34' E 122°14'2 3.7
2017-Dec-16 15:31N 25°32' E 122°13'6 4.1
2017-Dec-16 14:07N 25°26' E 122°13'1 5.3
2017-Dec-16 14:00N 25°26' E 122°13'3 5.0
2017-Dec-16 13:31N 25°23' E 122°12'2 4.8
2017-Dec-16 13:01N 25°21' E 122°12'3 5.7
2017-Dec-16 12:31N 25°18' E 122°12'3 6.1
2017-Dec-16 12:00N 25°15' E 122°11'3 5.3
2017-Dec-16 11:30N 25°12' E 122°11'3 5.7
2017-Dec-16 10:56N 25°09' E 122°11'7 5.0
2017-Dec-16 09:30N 25°02' E 122°10'3 5.0
2017-Dec-16 08:59N 24°60' E 122°10'4 4.8
2017-Dec-16 08:07N 24°56' E 122°08'3 4.3
2017-Dec-16 07:27N 24°53' E 122°07'3 5.4
2017-Dec-16 06:52N 24°50' E 122°06'3 7.5
2017-Dec-16 06:30N 24°47' E 122°05'5 8.4
2017-Dec-16 05:52N 24°42' E 122°03'19 9.4
2017-Dec-16 03:52N 24°24' E 121°57'7712.9
2017-Dec-15 21:52N 23°10' E 121°33'714.2
2017-Dec-15 21:22N 23°04' E 121°29'3513.4
2017-Dec-15 18:46N 22°31' E 121°17'412.8
2017-Dec-15 18:28N 22°28' E 121°15'912.7
2017-Dec-15 17:47N 22°20' E 121°13'413.2
2017-Dec-15 17:30N 22°16' E 121°11'713.4
2017-Dec-15 17:00N 22°10' E 121°09'  
2017-Dec-09 04:07N 01°17' E 104°01'0 0.1
2017-Dec-09 03:55N 01°17' E 104°01'0 0.0
2017-Dec-08 20:37N 01°17' E 104°01'0 0.0
2017-Dec-08 20:19N 01°17' E 104°01'0 0.0
2017-Dec-08 19:49N 01°17' E 104°01'0 0.0
2017-Dec-08 19:10N 01°17' E 104°01'0 0.0
2017-Dec-08 18:58N 01°17' E 104°01'0 0.0
2017-Dec-08 17:03N 01°17' E 104°01'0 0.1
2017-Dec-08 16:57N 01°17' E 104°01'0 0.3
2017-Dec-08 16:26N 01°17' E 104°01'2 4.7
2017-Dec-08 15:59N 01°16' E 103°59'2 3.8
2017-Dec-08 15:30N 01°15' E 103°57'3 6.4
2017-Dec-08 15:00N 01°13' E 103°55'612.2
2017-Dec-08 14:30N 01°11' E 103°50'612.8
2017-Dec-08 14:00N 01°07' E 103°45'611.6
2017-Dec-08 13:30N 01°04' E 103°40'610.6
2017-Dec-08 12:59N 01°06' E 103°34'511.0
2017-Dec-08 12:30N 01°08' E 103°30'511.1
2017-Dec-08 12:00N 01°11' E 103°25'610.9
2017-Dec-08 11:27N 01°15' E 103°20'  

Dump ship's entire track history